createdAt,value
2022-08-16T00:01:11.775Z,23.20
2022-08-16T00:03:38.726Z,23.42
2022-08-16T00:06:07.732Z,23.61
2022-08-16T00:08:37.660Z,23.76
2022-08-16T00:11:15.419Z,23.90
2022-08-16T00:13:53.037Z,23.98
2022-08-16T00:17:01.502Z,24.11
2022-08-16T00:19:16.831Z,24.19
2022-08-16T00:21:44.300Z,24.06
2022-08-16T00:24:12.983Z,23.74
2022-08-16T00:26:45.008Z,23.88
2022-08-16T00:29:16.825Z,23.85
2022-08-16T00:31:59.995Z,23.93
2022-08-16T00:34:44.672Z,24.11
2022-08-16T00:37:17.326Z,24.12
2022-08-16T00:39:47.175Z,24.15
2022-08-16T00:42:16.319Z,24.20
2022-08-16T00:45:30.057Z,24.20
2022-08-16T00:48:28.742Z,24.17
2022-08-16T00:50:55.513Z,24.14
2022-08-16T00:53:22.235Z,24.16
2022-08-16T00:55:53.047Z,24.06
2022-08-16T00:58:32.217Z,24.00
2022-08-16T01:01:02.257Z,23.95
2022-08-16T01:03:31.768Z,23.95
2022-08-16T01:06:40.650Z,23.96
2022-08-16T01:08:54.750Z,23.77
2022-08-16T01:11:23.901Z,23.53
2022-08-16T01:13:56.686Z,23.66
2022-08-16T01:16:26.562Z,23.64
2022-08-16T01:19:02.838Z,23.66
2022-08-16T01:21:56.066Z,23.66
2022-08-16T01:24:55.383Z,23.71
2022-08-16T01:27:29.502Z,23.74
2022-08-16T01:30:19.399Z,23.70
2022-08-16T01:32:59.589Z,23.57
2022-08-16T01:35:45.667Z,23.51
2022-08-16T01:38:29.960Z,23.45
2022-08-16T01:41:02.189Z,23.43
2022-08-16T01:43:31.119Z,23.41
2022-08-16T01:46:37.134Z,23.45
2022-08-16T01:48:53.185Z,23.39
2022-08-16T01:51:22.001Z,23.45
2022-08-16T01:53:55.487Z,23.39
2022-08-16T01:56:24.805Z,23.44
2022-08-16T01:58:54.676Z,23.40
2022-08-16T02:01:21.606Z,23.39
2022-08-16T02:03:50.574Z,23.29
2022-08-16T02:06:33.899Z,23.34
2022-08-16T02:09:02.420Z,23.33
2022-08-16T02:11:47.930Z,23.26
2022-08-16T02:14:18.666Z,23.15
2022-08-16T02:16:48.803Z,23.10
2022-08-16T02:19:16.726Z,23.09
2022-08-16T02:22:08.477Z,23.15
2022-08-16T02:24:40.926Z,23.14
2022-08-16T02:27:10.270Z,23.14
2022-08-16T02:29:38.316Z,23.16
2022-08-16T02:32:48.858Z,23.11
2022-08-16T02:34:59.136Z,23.05
2022-08-16T02:37:44.759Z,22.98
2022-08-16T02:40:16.393Z,23.01
2022-08-16T02:42:44.972Z,23.04
2022-08-16T02:45:12.575Z,23.01
2022-08-16T02:48:00.384Z,22.95
2022-08-16T02:50:55.564Z,22.99
2022-08-16T02:53:13.009Z,22.94
2022-08-16T02:55:40.679Z,22.92
2022-08-16T02:58:08.127Z,22.91
2022-08-16T03:00:36.169Z,22.87
2022-08-16T03:03:04.718Z,22.82
2022-08-16T03:05:37.120Z,22.80
2022-08-16T03:08:05.211Z,22.71
2022-08-16T03:10:51.911Z,22.76
2022-08-16T03:13:20.258Z,22.73
2022-08-16T03:15:49.578Z,22.71
2022-08-16T03:18:34.098Z,22.67
2022-08-16T03:21:01.420Z,22.74
2022-08-16T03:23:27.995Z,22.70
2022-08-16T03:26:02.662Z,22.66
2022-08-16T03:30:56.892Z,22.59
2022-08-16T03:33:23.496Z,22.64
2022-08-16T03:35:51.187Z,22.61
2022-08-16T03:38:32.399Z,22.58
2022-08-16T03:41:03.283Z,22.53
2022-08-16T03:43:51.457Z,22.52
2022-08-16T03:46:44.857Z,22.49
2022-08-16T03:49:05.556Z,22.50
2022-08-16T03:51:34.234Z,22.54
2022-08-16T03:54:01.681Z,22.50
2022-08-16T03:56:30.416Z,22.52
2022-08-16T03:58:58.354Z,22.51
2022-08-16T04:01:25.127Z,22.54
2022-08-16T04:03:56.048Z,22.44
2022-08-16T04:06:22.748Z,22.54
2022-08-16T04:08:49.675Z,22.56
2022-08-16T04:11:17.104Z,22.57
2022-08-16T04:14:32.425Z,22.32
2022-08-16T04:16:51.076Z,21.89
2022-08-16T04:19:17.732Z,21.24
2022-08-16T04:21:48.230Z,21.08
2022-08-16T04:24:14.896Z,21.05
2022-08-16T04:26:45.864Z,20.99
2022-08-16T04:29:16.235Z,21.11
2022-08-16T04:31:44.947Z,21.25
2022-08-16T04:34:12.176Z,21.31
2022-08-16T04:36:39.645Z,21.49
2022-08-16T04:39:06.172Z,21.76
2022-08-16T04:41:37.384Z,21.88
2022-08-16T04:44:32.966Z,21.94
2022-08-16T04:47:02.835Z,22.09
2022-08-16T04:49:43.958Z,22.27
2022-08-16T04:52:34.084Z,22.27
2022-08-16T04:54:59.680Z,22.36
2022-08-16T04:57:26.528Z,22.32
2022-08-16T04:59:57.017Z,22.10
2022-08-16T05:02:41.439Z,22.41
2022-08-16T05:05:17.833Z,22.39
2022-08-16T05:07:58.579Z,22.17
2022-08-16T05:10:29.600Z,22.38
2022-08-16T05:12:58.441Z,22.46
2022-08-16T05:15:25.595Z,22.54
2022-08-16T05:17:55.498Z,22.63
2022-08-16T05:20:35.287Z,22.68
2022-08-16T05:23:13.732Z,22.75
2022-08-16T05:25:48.366Z,22.77
2022-08-16T05:28:16.698Z,22.78
2022-08-16T05:30:43.373Z,22.84
2022-08-16T05:33:16.419Z,22.85
2022-08-16T05:35:43.911Z,22.93
2022-08-16T05:38:33.432Z,22.91
2022-08-16T05:41:07.010Z,22.95
2022-08-16T05:43:43.274Z,23.01
2022-08-16T05:46:30.423Z,23.02
2022-08-16T05:49:03.129Z,23.07
2022-08-16T05:51:36.910Z,23.15
2022-08-16T05:54:09.591Z,23.19
2022-08-16T05:56:57.567Z,23.21
2022-08-16T05:59:27.620Z,23.30
2022-08-16T06:01:54.923Z,23.38
2022-08-16T06:04:35.056Z,23.46
2022-08-16T06:07:07.096Z,23.51
2022-08-16T06:09:42.779Z,23.64
2022-08-16T06:12:12.756Z,23.67
2022-08-16T06:14:54.343Z,23.53
2022-08-16T06:17:21.770Z,23.76
2022-08-16T06:19:48.301Z,23.89
2022-08-16T06:22:37.366Z,23.98
2022-08-16T06:25:04.940Z,24.23
2022-08-16T06:27:39.502Z,24.28
2022-08-16T06:30:10.525Z,24.05
2022-08-16T06:32:42.908Z,24.32
2022-08-16T06:35:10.190Z,24.35
2022-08-16T06:37:38.131Z,24.39
2022-08-16T06:40:05.671Z,24.33
2022-08-16T06:42:47.623Z,24.51
2022-08-16T06:45:15.569Z,24.72
2022-08-16T06:47:52.922Z,24.69
2022-08-16T06:50:28.875Z,24.71
2022-08-16T06:53:19.762Z,24.61
2022-08-16T06:55:46.719Z,24.51
2022-08-16T06:58:21.910Z,24.90
2022-08-16T07:00:49.505Z,24.92
2022-08-16T07:03:27.572Z,24.80
2022-08-16T07:05:55.442Z,24.86
2022-08-16T07:08:22.170Z,24.56
2022-08-16T07:10:49.980Z,24.81
2022-08-16T07:13:26.681Z,24.66
2022-08-16T07:16:04.961Z,24.78
2022-08-16T07:18:32.094Z,25.07
2022-08-16T07:21:01.957Z,25.12
2022-08-16T07:23:39.127Z,25.31
2022-08-16T07:26:24.884Z,25.46
2022-08-16T07:28:52.545Z,25.33
2022-08-16T07:31:20.171Z,25.59
2022-08-16T07:33:52.867Z,25.68
2022-08-16T07:36:21.934Z,25.46
2022-08-16T07:38:49.299Z,25.30
2022-08-16T07:41:16.780Z,25.20
2022-08-16T07:43:43.529Z,25.32
2022-08-16T07:46:39.059Z,25.27
2022-08-16T07:49:02.579Z,25.42
2022-08-16T07:51:30.676Z,25.44
2022-08-16T07:54:02.343Z,25.36
2022-08-16T07:56:37.188Z,25.47
2022-08-16T07:59:05.470Z,25.68
2022-08-16T08:01:32.615Z,25.68
2022-08-16T08:03:59.169Z,25.92
2022-08-16T08:06:28.714Z,25.77
2022-08-16T08:08:57.558Z,25.85
2022-08-16T08:11:28.495Z,26.03
2022-08-16T08:13:57.493Z,25.88
2022-08-16T08:16:31.932Z,26.03
2022-08-16T08:19:01.156Z,26.11
2022-08-16T08:21:58.154Z,26.05
2022-08-16T08:24:19.033Z,25.86
2022-08-16T08:26:50.134Z,26.10
2022-08-16T08:29:23.043Z,26.24
2022-08-16T08:31:52.980Z,26.18
2022-08-16T08:34:19.689Z,25.95
2022-08-16T08:36:46.250Z,25.84
2022-08-16T08:39:28.937Z,25.83
2022-08-16T08:41:55.806Z,25.66
2022-08-16T08:44:29.272Z,25.81
2022-08-16T08:50:31.777Z,25.98
2022-08-16T08:53:09.877Z,26.01
2022-08-16T09:07:21.208Z,25.38
2022-08-16T09:09:50.425Z,25.72
2022-08-16T09:12:36.591Z,25.75
2022-08-16T09:15:04.833Z,26.12
2022-08-16T09:17:49.274Z,26.27
2022-08-16T09:20:18.527Z,25.98
2022-08-16T09:22:51.367Z,26.20
2022-08-16T09:25:25.835Z,26.43
2022-08-16T09:27:57.742Z,26.55
2022-08-16T09:30:43.393Z,26.32
2022-08-16T09:33:13.882Z,26.26
2022-08-16T09:35:42.713Z,26.41
2022-08-16T09:38:10.379Z,26.56
2022-08-16T09:40:44.015Z,26.40
2022-08-16T09:43:37.788Z,26.70
2022-08-16T09:45:59.458Z,26.49
2022-08-16T09:48:44.364Z,26.81
2022-08-16T09:51:14.005Z,26.72
2022-08-16T09:53:41.242Z,26.99
2022-08-16T09:56:26.525Z,27.12
2022-08-16T09:59:05.018Z,26.96
2022-08-16T10:01:36.351Z,27.06
2022-08-16T10:04:04.066Z,27.34
2022-08-16T10:06:33.959Z,27.35
2022-08-16T10:09:11.196Z,27.22
2022-08-16T10:11:50.568Z,27.23
2022-08-16T10:14:17.660Z,27.03
2022-08-16T10:16:48.949Z,27.00
2022-08-16T10:19:19.297Z,26.88
2022-08-16T10:21:46.118Z,26.96
2022-08-16T10:24:28.335Z,27.05
2022-08-16T10:27:19.578Z,26.85
2022-08-16T10:30:01.329Z,26.91
2022-08-16T10:32:30.674Z,27.16
2022-08-16T10:34:59.633Z,26.91
2022-08-16T10:37:32.707Z,27.08
2022-08-16T10:40:29.232Z,26.94
2022-08-16T10:42:57.058Z,26.74
2022-08-16T10:45:28.164Z,26.71
2022-08-16T10:48:00.698Z,26.82
2022-08-16T10:50:31.167Z,26.74
2022-08-16T10:52:59.358Z,27.09
2022-08-16T10:55:44.159Z,26.96
2022-08-16T10:58:16.852Z,27.11
2022-08-16T11:00:46.023Z,26.93
2022-08-16T11:06:03.239Z,27.34
2022-08-16T11:08:37.038Z,27.19
2022-08-16T11:11:11.766Z,27.29
2022-08-16T11:14:05.939Z,27.21
2022-08-16T11:19:18.972Z,27.19
2022-08-16T11:24:42.679Z,27.27
2022-08-16T11:27:22.844Z,27.32
2022-08-16T11:29:53.545Z,27.66
2022-08-16T11:32:30.040Z,27.56
2022-08-16T11:35:13.954Z,27.75
2022-08-16T11:40:44.117Z,27.71
2022-08-16T11:43:16.879Z,27.91
2022-08-16T11:45:44.084Z,28.08
2022-08-16T11:48:21.910Z,28.08
2022-08-16T11:50:48.526Z,28.31
2022-08-16T11:53:15.149Z,28.58
2022-08-16T11:55:44.185Z,28.25
2022-08-16T11:58:11.872Z,28.54
2022-08-16T12:00:51.805Z,28.60
2022-08-16T12:03:31.401Z,28.82
2022-08-16T12:06:10.586Z,28.78
2022-08-16T12:08:39.275Z,28.73
2022-08-16T12:11:06.029Z,28.89
2022-08-16T12:13:33.684Z,28.93
2022-08-16T12:16:00.222Z,28.56
2022-08-16T12:18:28.003Z,28.52
2022-08-16T12:20:55.102Z,28.85
2022-08-16T12:23:22.085Z,28.89
2022-08-16T12:25:49.154Z,28.78
2022-08-16T12:28:17.586Z,28.75
2022-08-16T12:31:04.150Z,28.87
2022-08-16T12:33:31.021Z,28.96
2022-08-16T12:35:58.415Z,28.68
2022-08-16T12:38:41.584Z,28.86
2022-08-16T12:41:13.837Z,29.14
2022-08-16T12:43:50.912Z,28.92
2022-08-16T12:46:18.679Z,28.86
2022-08-16T12:48:45.172Z,29.04
2022-08-16T12:51:19.886Z,28.96
2022-08-16T12:53:53.707Z,29.22
2022-08-16T12:56:25.319Z,29.38
2022-08-16T12:58:55.333Z,29.38
2022-08-16T13:01:27.460Z,29.77
2022-08-16T13:04:11.264Z,30.06
2022-08-16T13:06:42.513Z,29.93
2022-08-16T13:09:09.657Z,29.75
2022-08-16T13:11:41.376Z,29.72
2022-08-16T13:14:08.195Z,30.08
2022-08-16T13:16:45.767Z,30.13
2022-08-16T13:19:12.319Z,30.22
2022-08-16T13:21:38.914Z,30.77
2022-08-16T13:24:07.835Z,31.55
2022-08-16T13:26:34.379Z,32.17
2022-08-16T13:29:00.879Z,32.54
2022-08-16T13:31:27.680Z,32.94
2022-08-16T13:33:54.566Z,33.51
2022-08-16T13:36:47.931Z,34.02
2022-08-16T13:39:12.528Z,35.16
2022-08-16T13:41:39.035Z,35.74
2022-08-16T13:44:09.194Z,36.21
2022-08-16T13:46:37.149Z,36.56
2022-08-16T13:49:03.993Z,36.74
2022-08-16T13:51:31.031Z,37.05
2022-08-16T13:54:03.320Z,37.31
2022-08-16T13:56:37.953Z,37.01
2022-08-16T13:59:14.028Z,37.38
2022-08-16T14:01:46.770Z,36.48
2022-08-16T14:04:26.158Z,36.76
2022-08-16T14:06:54.724Z,36.78
2022-08-16T14:09:21.573Z,36.77
2022-08-16T14:11:49.549Z,36.52
2022-08-16T14:14:28.286Z,36.73
2022-08-16T14:16:56.383Z,37.04
2022-08-16T14:19:22.961Z,37.51
2022-08-16T14:21:56.584Z,37.61
2022-08-16T14:24:36.529Z,37.93
2022-08-16T14:27:04.388Z,37.67
2022-08-16T14:29:31.844Z,37.55
2022-08-16T14:32:04.953Z,38.15
2022-08-16T14:34:31.472Z,37.99
2022-08-16T14:36:58.012Z,37.40
2022-08-16T14:39:26.518Z,37.18
2022-08-16T14:41:53.370Z,37.23
2022-08-16T14:44:20.455Z,37.40
2022-08-16T14:46:46.957Z,37.17
2022-08-16T14:49:13.465Z,37.50
2022-08-16T14:51:40.388Z,37.79
2022-08-16T14:54:06.889Z,37.61
2022-08-16T14:56:42.760Z,37.62
2022-08-16T14:59:09.821Z,37.92
2022-08-16T15:01:57.821Z,38.21
2022-08-16T15:04:32.608Z,38.45
2022-08-16T15:07:06.867Z,38.56
2022-08-16T15:09:44.533Z,39.01
2022-08-16T15:12:34.179Z,38.82
2022-08-16T15:15:12.438Z,39.00
2022-08-16T15:17:56.170Z,39.25
2022-08-16T15:20:29.235Z,38.92
2022-08-16T15:22:56.156Z,38.86
2022-08-16T15:25:29.347Z,38.97
2022-08-16T15:27:58.228Z,39.04
2022-08-16T15:30:57.316Z,38.58
2022-08-16T15:33:17.692Z,38.16
2022-08-16T15:35:46.127Z,38.23
2022-08-16T15:38:54.602Z,38.38
2022-08-16T15:41:00.941Z,38.71
2022-08-16T15:43:33.921Z,38.86
2022-08-16T15:46:08.771Z,38.79
2022-08-16T15:48:35.288Z,39.03
2022-08-16T15:51:07.970Z,39.20
2022-08-16T15:53:41.809Z,38.93
2022-08-16T15:56:09.835Z,39.20
2022-08-16T15:58:38.890Z,39.51
2022-08-16T16:01:06.273Z,39.65
2022-08-16T16:03:34.644Z,39.65
2022-08-16T16:06:01.534Z,39.92
2022-08-16T16:08:28.609Z,39.52
2022-08-16T16:10:59.878Z,39.58
2022-08-16T16:13:27.480Z,39.82
2022-08-16T16:15:59.671Z,40.07
2022-08-16T16:18:26.389Z,39.99
2022-08-16T16:20:57.292Z,39.86
2022-08-16T16:23:29.535Z,40.33
2022-08-16T16:25:56.570Z,40.57
2022-08-16T16:29:05.200Z,40.78
2022-08-16T16:31:17.627Z,41.03
2022-08-16T16:33:46.968Z,41.18
2022-08-16T16:36:19.432Z,41.36
2022-08-16T16:38:46.631Z,41.37
2022-08-16T16:41:15.964Z,41.53
2022-08-16T16:43:44.407Z,41.53
2022-08-16T16:46:40.940Z,41.68
2022-08-16T16:49:01.212Z,41.77
2022-08-16T16:51:30.142Z,41.87
2022-08-16T16:53:59.153Z,41.66
2022-08-16T16:56:27.525Z,41.63
2022-08-16T16:59:01.632Z,41.67
2022-08-16T17:01:56.570Z,41.72
2022-08-16T17:04:31.871Z,41.71
2022-08-16T17:07:00.780Z,41.73
2022-08-16T17:09:27.308Z,41.62
2022-08-16T17:11:54.927Z,41.53
2022-08-16T17:14:32.868Z,41.49
2022-08-16T17:17:06.369Z,41.39
2022-08-16T17:19:33.328Z,41.36
2022-08-16T17:22:01.082Z,41.26
2022-08-16T17:24:39.397Z,41.33
2022-08-16T17:27:08.315Z,41.31
2022-08-16T17:29:35.091Z,41.18
2022-08-16T17:32:33.537Z,40.80
2022-08-16T17:35:00.452Z,40.61
2022-08-16T17:37:42.476Z,40.50
2022-08-16T17:40:23.338Z,40.14
2022-08-16T17:43:00.742Z,39.61
2022-08-16T17:45:27.856Z,39.21
2022-08-16T17:47:54.456Z,38.84
2022-08-16T17:50:21.142Z,38.44
2022-08-16T17:52:52.880Z,37.79
2022-08-16T17:55:30.320Z,37.20
2022-08-16T17:57:57.904Z,36.82
2022-08-16T18:00:25.913Z,36.35
2022-08-16T18:02:52.707Z,36.08
2022-08-16T18:05:19.651Z,35.86
2022-08-16T18:07:46.858Z,35.55
2022-08-16T18:10:14.697Z,35.28
2022-08-16T18:12:59.715Z,35.03
2022-08-16T18:15:26.385Z,34.77
2022-08-16T18:17:52.988Z,34.57
2022-08-16T18:20:22.401Z,34.38
2022-08-16T18:22:49.143Z,34.17
2022-08-16T18:25:15.812Z,33.83
2022-08-16T18:27:42.329Z,33.43
2022-08-16T18:30:09.028Z,33.43
2022-08-16T18:32:35.519Z,33.02
2022-08-16T18:35:02.155Z,32.85
2022-08-16T18:37:28.661Z,32.67
2022-08-16T18:39:55.228Z,32.54
2022-08-16T18:42:24.639Z,32.51
2022-08-16T18:44:51.160Z,32.37
2022-08-16T18:47:17.678Z,32.29
2022-08-16T18:49:44.214Z,32.16
2022-08-16T18:52:14.830Z,32.08
2022-08-16T18:55:01.912Z,32.00
2022-08-16T18:57:29.712Z,31.99
2022-08-16T18:59:56.229Z,31.91
2022-08-16T19:02:55.993Z,31.79
2022-08-16T19:05:16.721Z,31.76
2022-08-16T19:07:43.253Z,31.69
2022-08-16T19:10:10.039Z,31.61
2022-08-16T19:12:42.178Z,31.54
2022-08-16T19:15:16.798Z,31.45
2022-08-16T19:17:44.608Z,31.26
2022-08-16T19:20:13.016Z,31.11
2022-08-16T19:23:04.657Z,30.78
2022-08-16T19:25:47.351Z,30.75
2022-08-16T19:28:51.775Z,30.41
2022-08-16T19:31:30.707Z,30.37
2022-08-16T19:33:57.862Z,30.35
2022-08-16T19:36:31.125Z,30.18
2022-08-16T19:39:04.255Z,30.41
2022-08-16T19:41:33.099Z,30.44
2022-08-16T19:43:59.659Z,30.29
2022-08-16T19:46:26.215Z,29.53
2022-08-16T19:48:52.733Z,29.84
2022-08-16T19:51:19.231Z,30.05
2022-08-16T19:53:45.744Z,30.19
2022-08-16T19:56:12.228Z,30.24
2022-08-16T19:58:51.013Z,30.27
2022-08-16T20:01:25.228Z,30.36
2022-08-16T20:03:51.731Z,30.38
2022-08-16T20:06:38.116Z,30.22
2022-08-16T20:09:04.758Z,30.22
2022-08-16T20:11:31.257Z,30.36
2022-08-16T20:13:57.767Z,30.31
2022-08-16T20:16:24.286Z,30.09
2022-08-16T20:18:50.764Z,30.26
2022-08-16T20:21:17.288Z,30.27
2022-08-16T20:23:43.774Z,30.23
2022-08-16T20:26:10.295Z,30.27
2022-08-16T20:28:52.182Z,30.35
2022-08-16T20:31:20.455Z,30.40
2022-08-16T20:33:46.980Z,30.42
2022-08-16T20:36:16.180Z,30.44
2022-08-16T20:38:44.835Z,30.44
2022-08-16T20:41:11.905Z,30.44
2022-08-16T20:43:38.515Z,30.47
2022-08-16T20:46:05.049Z,30.47
2022-08-16T20:48:31.638Z,30.44
2022-08-16T20:50:58.126Z,30.27
2022-08-16T20:53:24.634Z,30.36
2022-08-16T20:55:51.166Z,30.36
2022-08-16T20:58:17.715Z,30.36
2022-08-16T21:00:44.286Z,30.35
2022-08-16T21:03:12.665Z,30.34
2022-08-16T21:05:39.630Z,30.35
2022-08-16T21:08:28.741Z,30.31
2022-08-16T21:10:53.467Z,30.35
2022-08-16T21:13:19.966Z,30.30
2022-08-16T21:15:46.479Z,30.17
2022-08-16T21:18:12.987Z,29.89
2022-08-16T21:20:39.618Z,29.00
2022-08-16T21:23:08.400Z,28.69
2022-08-16T21:25:39.651Z,28.20
2022-08-16T21:28:42.047Z,27.11
2022-08-16T21:31:00.441Z,27.40
2022-08-16T21:33:26.935Z,27.76
2022-08-16T21:35:53.449Z,27.80
2022-08-16T21:38:30.346Z,28.07
2022-08-16T21:40:59.016Z,28.21
2022-08-16T21:43:26.530Z,28.21
2022-08-16T21:45:54.903Z,28.00
2022-08-16T21:48:35.002Z,26.93
2022-08-16T21:51:07.861Z,26.83
2022-08-16T21:53:35.444Z,26.77
2022-08-16T21:56:03.725Z,26.66
2022-08-16T21:58:31.266Z,26.32
2022-08-16T22:00:58.923Z,26.41
2022-08-16T22:03:25.493Z,26.54
2022-08-16T22:06:11.597Z,26.54
2022-08-16T22:08:49.840Z,26.41
2022-08-16T22:11:25.430Z,26.41
2022-08-16T22:13:58.512Z,26.57
2022-08-16T22:16:32.453Z,26.60
2022-08-16T22:19:01.515Z,26.56
2022-08-16T22:21:29.568Z,26.23
2022-08-16T22:23:58.703Z,26.35
2022-08-16T22:26:30.607Z,26.48
2022-08-16T22:29:04.740Z,26.24
2022-08-16T22:31:31.720Z,25.93
2022-08-16T22:33:59.125Z,25.23
2022-08-16T22:36:28.541Z,25.10
2022-08-16T22:38:58.561Z,24.70
2022-08-16T22:41:27.332Z,24.72
2022-08-16T22:43:53.874Z,24.55
2022-08-16T22:46:20.609Z,24.68
2022-08-16T22:48:47.450Z,23.95
2022-08-16T22:51:13.954Z,24.00
2022-08-16T22:53:40.461Z,23.88
2022-08-16T22:56:08.471Z,24.08
2022-08-16T22:58:36.341Z,24.19
2022-08-16T23:01:06.774Z,24.36
2022-08-16T23:03:33.465Z,24.12
2022-08-16T23:06:00.551Z,24.01
2022-08-16T23:08:38.725Z,23.87
2022-08-16T23:11:13.042Z,23.97
2022-08-16T23:13:52.652Z,24.08
2022-08-16T23:16:24.003Z,24.10
2022-08-16T23:18:55.846Z,24.19
2022-08-16T23:21:22.948Z,24.22
2022-08-16T23:23:53.141Z,24.52
2022-08-16T23:26:47.264Z,24.47
2022-08-16T23:29:06.293Z,24.15
2022-08-16T23:31:42.490Z,24.09
2022-08-16T23:34:08.994Z,23.96
2022-08-16T23:36:35.580Z,24.25
2022-08-16T23:39:02.067Z,23.97
2022-08-16T23:41:28.600Z,24.10
2022-08-16T23:43:55.119Z,23.89
2022-08-16T23:46:21.610Z,24.11
2022-08-16T23:49:57.018Z,24.68
2022-08-16T23:51:34.684Z,25.14
2022-08-16T23:54:01.264Z,25.53
2022-08-16T23:56:27.882Z,25.85
2022-08-16T23:59:02.963Z,26.14
